KCYS/CYS METAR and TAF weather

Enter ICAO airport designator
Station Type Date Time Source
KCYS METAR 2022/06/25 21:53 UTC NOAA

KCYS 252153Z 04007G15KT 10SM SCT060 21/04 A3036 RMK AO2 SLP211 T02060044


Station Type Date Time Source
KCYS Decoded METAR 2022/06/25 21:53 UTC NOAA

CHEYENNE AIRPORT, WY, United States (KCYS) 41-09N 104-48W 1865M
Jun 25, 2022 - 05:53 PM EDT / 2022.06.25 2153 UTC
Wind: from the NE (040 degrees) at 8 MPH (7 KT) gusting to 17 MPH (15 KT):0
Visibility: 10 mile(s):0
Sky conditions: partly cloudy
Temperature: 69.1 F (20.6 C)
Dew Point: 39.9 F (4.4 C)
Relative Humidity: 34%
Pressure (altimeter): 30.36 in. Hg (1028 hPa)
ob: KCYS 252153Z 04007G15KT 10SM SCT060 21/04 A3036 RMK AO2 SLP211 T02060044
cycle: 22

Station Type Date Time Source
KCYS TAF 2022/06/25 18:22 UTC NOAA

TAF KCYS 251720Z 2518/2618 03010KT P6SM BKN040
FM252100 04011G20KT P6SM VCTS SCT050CB
FM260000 06011KT P6SM VCSH BKN090
FM260600 07011KT P6SM SCT020 BKN050
FM261000 16007KT P6SM BKN020 OVC050

Example: see airport list